Sylhet, Bangladesh
Current Conditions -  °F | °C
As of 4:50 PM on Friday 28 Nov 2014 (Local Time) from VGHS Reporting Station
Haze Haze  
Wind Chill: 75°   Ceiling: 10000
Heat Index: 75°   Visibility: 2mi
Dew Point: 59°   Wind: 0mph
Humidity: 57%   Direction: NA
Pressure: 29.83"   Gusts: NA
Location:  24.9°N, 91.88°E
Report Text: VGHS 281050Z 00000KT 3200 HZ SCT015 BKN100 24/15 Q1010 NOSIG
Loading
Personal Weather Stations






























Interactive Weather Map New forecast layout! Learn more

10-Day Weather Forecast

Advertisements
Track Severe Weather on mobile